createdAt,value
2023-04-24T00:02:14.053Z,15.63
2023-04-24T00:04:45.842Z,15.57
2023-04-24T00:07:15.322Z,15.48
2023-04-24T00:09:43.538Z,15.24
2023-04-24T00:12:13.023Z,15.44
2023-04-24T00:14:40.950Z,15.50
2023-04-24T00:17:08.888Z,15.45
2023-04-24T00:19:38.112Z,15.46
2023-04-24T00:22:06.265Z,15.58
2023-04-24T00:24:34.122Z,15.40
2023-04-24T00:27:02.080Z,15.50
2023-04-24T00:29:30.235Z,15.46
2023-04-24T00:31:58.539Z,15.12
2023-04-24T00:34:26.584Z,15.30
2023-04-24T00:36:56.028Z,15.33
2023-04-24T00:39:24.904Z,15.17
2023-04-24T00:41:53.597Z,15.30
2023-04-24T00:44:21.507Z,15.20
2023-04-24T00:46:52.909Z,15.33
2023-04-24T00:49:21.098Z,15.26
2023-04-24T00:51:50.266Z,15.12
2023-04-24T00:54:20.034Z,15.06
2023-04-24T00:56:48.620Z,15.11
2023-04-24T00:59:18.874Z,15.23
2023-04-24T01:01:48.032Z,15.05
2023-04-24T01:04:16.637Z,15.25
2023-04-24T01:06:46.460Z,15.24
2023-04-24T01:09:15.513Z,15.23
2023-04-24T01:11:44.937Z,15.29
2023-04-24T01:14:13.875Z,15.27
2023-04-24T01:16:42.941Z,14.84
2023-04-24T01:19:12.610Z,15.19
2023-04-24T01:21:41.533Z,15.26
2023-04-24T01:24:10.913Z,15.13
2023-04-24T01:26:39.930Z,15.43
2023-04-24T01:29:08.096Z,15.28
2023-04-24T01:31:37.028Z,15.30
2023-04-24T01:34:05.466Z,15.31
2023-04-24T01:36:36.078Z,15.29
2023-04-24T01:39:04.411Z,15.40
2023-04-24T01:41:34.299Z,15.46
2023-04-24T01:44:02.425Z,15.23
2023-04-24T01:46:31.723Z,15.40
2023-04-24T01:49:01.713Z,15.15
2023-04-24T01:51:30.054Z,15.06
2023-04-24T01:53:58.504Z,15.24
2023-04-24T01:56:27.654Z,15.10
2023-04-24T01:58:58.271Z,15.33
2023-04-24T02:01:26.725Z,15.01
2023-04-24T02:03:54.727Z,15.33
2023-04-24T02:06:23.249Z,15.29
2023-04-24T02:08:51.078Z,15.30
2023-04-24T02:11:19.670Z,15.30
2023-04-24T02:13:47.746Z,15.34
2023-04-24T02:16:17.035Z,15.19
2023-04-24T02:18:44.969Z,15.15
2023-04-24T02:21:13.067Z,15.18
2023-04-24T02:23:41.150Z,15.12
2023-04-24T02:26:09.186Z,15.03
2023-04-24T02:28:37.052Z,15.34
2023-04-24T02:31:04.894Z,15.41
2023-04-24T02:33:34.158Z,15.28
2023-04-24T02:36:02.198Z,15.29
2023-04-24T02:38:30.129Z,15.57
2023-04-24T02:40:58.077Z,15.65
2023-04-24T02:43:27.914Z,15.49
2023-04-24T02:45:56.141Z,15.45
2023-04-24T02:48:24.623Z,15.47
2023-04-24T02:50:54.388Z,15.40
2023-04-24T02:53:22.462Z,15.55
2023-04-24T02:55:50.489Z,15.56
2023-04-24T02:58:18.425Z,15.56
2023-04-24T03:00:46.441Z,15.34
2023-04-24T03:03:14.521Z,15.40
2023-04-24T03:05:42.499Z,15.61
2023-04-24T03:08:12.440Z,15.56
2023-04-24T03:10:40.320Z,15.53
2023-04-24T03:13:09.614Z,15.36
2023-04-24T03:15:37.559Z,15.37
2023-04-24T03:18:05.523Z,15.42
2023-04-24T03:20:34.205Z,15.38
2023-04-24T03:23:02.127Z,15.49
2023-04-24T03:25:31.567Z,15.63
2023-04-24T03:27:59.618Z,15.47
2023-04-24T03:30:35.841Z,15.53
2023-04-24T03:33:04.637Z,15.24
2023-04-24T03:35:37.252Z,15.38
2023-04-24T03:38:09.592Z,15.57
2023-04-24T03:41:01.911Z,15.58
2023-04-24T03:43:50.715Z,15.59
2023-04-24T03:46:18.778Z,15.48
2023-04-24T03:48:53.427Z,15.62
2023-04-24T03:51:24.519Z,15.73
2023-04-24T03:53:56.312Z,15.59
2023-04-24T03:56:27.987Z,15.55
2023-04-24T03:58:56.332Z,15.65
2023-04-24T04:01:25.147Z,15.56
2023-04-24T04:04:25.604Z,15.62
2023-04-24T04:06:54.321Z,15.85
2023-04-24T04:09:22.648Z,15.76
2023-04-24T04:11:52.022Z,15.86
2023-04-24T04:14:19.919Z,15.72
2023-04-24T04:16:49.686Z,15.92
2023-04-24T04:19:17.820Z,15.91
2023-04-24T04:21:46.691Z,15.90
2023-04-24T04:24:27.834Z,15.92
2023-04-24T04:26:57.737Z,15.79
2023-04-24T04:29:37.309Z,15.75
2023-04-24T04:32:09.496Z,15.73
2023-04-24T04:34:38.642Z,15.80
2023-04-24T04:37:07.730Z,15.80
2023-04-24T04:40:07.950Z,15.61
2023-04-24T04:42:46.922Z,15.84
2023-04-24T04:45:18.001Z,15.68
2023-04-24T04:48:07.036Z,15.60
2023-04-24T04:50:34.960Z,15.57
2023-04-24T04:53:07.955Z,15.67
2023-04-24T04:55:39.823Z,15.95
2023-04-24T04:58:17.937Z,15.99
2023-04-24T05:00:47.524Z,15.99
2023-04-24T05:03:22.757Z,15.99
2023-04-24T05:06:10.990Z,15.99
2023-04-24T05:08:42.159Z,16.01
2023-04-24T05:11:14.490Z,16.14
2023-04-24T05:13:44.588Z,16.05
2023-04-24T05:16:20.551Z,16.26
2023-04-24T05:18:50.318Z,16.13
2023-04-24T05:21:21.998Z,16.36
2023-04-24T05:23:52.842Z,16.37
2023-04-24T05:26:34.983Z,16.36
2023-04-24T05:29:04.284Z,16.39
2023-04-24T05:31:32.929Z,16.39
2023-04-24T05:34:01.012Z,16.69
2023-04-24T05:36:29.283Z,16.45
2023-04-24T05:38:57.598Z,16.61
2023-04-24T05:41:26.085Z,16.78
2023-04-24T05:43:53.993Z,17.38
2023-04-24T05:46:24.169Z,16.92
2023-04-24T05:48:52.075Z,16.72
2023-04-24T05:51:20.367Z,17.27
2023-04-24T05:53:48.612Z,17.22
2023-04-24T05:56:17.803Z,16.88
2023-04-24T05:58:46.111Z,17.22
2023-04-24T06:01:15.157Z,17.32
2023-04-24T06:03:45.908Z,17.40
2023-04-24T06:06:14.225Z,17.35
2023-04-24T06:08:43.693Z,17.65
2023-04-24T06:11:12.026Z,17.92
2023-04-24T06:13:40.791Z,17.72
2023-04-24T06:16:27.179Z,17.54
2023-04-24T06:19:03.713Z,17.36
2023-04-24T06:21:32.578Z,17.50
2023-04-24T06:24:00.873Z,17.51
2023-04-24T06:26:28.870Z,17.65
2023-04-24T06:28:56.832Z,17.98
2023-04-24T06:31:24.668Z,17.96
2023-04-24T06:33:52.683Z,17.67
2023-04-24T06:36:21.973Z,17.93
2023-04-24T06:38:49.870Z,18.09
2023-04-24T06:41:17.737Z,18.03
2023-04-24T06:43:45.942Z,18.26
2023-04-24T06:46:13.989Z,18.12
2023-04-24T06:48:41.979Z,18.27
2023-04-24T06:51:10.128Z,18.20
2023-04-24T06:53:39.440Z,18.21
2023-04-24T06:56:07.480Z,19.03
2023-04-24T06:58:35.332Z,19.17
2023-04-24T07:01:03.218Z,19.22
2023-04-24T07:03:31.721Z,18.90
2023-04-24T07:05:59.931Z,19.00
2023-04-24T07:08:27.807Z,19.05
2023-04-24T07:10:57.107Z,19.51
2023-04-24T07:13:25.275Z,20.29
2023-04-24T07:15:55.009Z,20.38
2023-04-24T07:18:23.589Z,19.74
2023-04-24T07:20:52.065Z,19.65
2023-04-24T07:23:20.085Z,19.73
2023-04-24T07:25:47.937Z,19.77
2023-04-24T07:28:18.854Z,19.60
2023-04-24T07:30:46.828Z,19.41
2023-04-24T07:33:14.899Z,19.32
2023-04-24T07:35:42.894Z,19.61
2023-04-24T07:38:10.749Z,19.58
2023-04-24T07:40:38.688Z,19.42
2023-04-24T07:43:06.676Z,19.37
2023-04-24T07:45:38.217Z,19.51
2023-04-24T07:48:06.354Z,19.53
2023-04-24T07:50:34.463Z,19.87
2023-04-24T07:53:02.297Z,20.00
2023-04-24T07:55:30.234Z,20.17
2023-04-24T07:57:58.144Z,20.33
2023-04-24T08:00:26.108Z,20.54
2023-04-24T08:02:55.537Z,20.63
2023-04-24T08:05:23.631Z,20.04
2023-04-24T08:07:51.716Z,20.41
2023-04-24T08:10:19.920Z,20.68
2023-04-24T08:12:47.956Z,20.72
2023-04-24T08:15:15.875Z,20.80
2023-04-24T08:17:43.913Z,20.56
2023-04-24T08:20:15.408Z,20.53
2023-04-24T08:22:43.610Z,20.66
2023-04-24T08:25:12.424Z,20.47
2023-04-24T08:27:40.817Z,20.47
2023-04-24T08:30:09.934Z,20.44
2023-04-24T08:32:38.428Z,20.59
2023-04-24T08:35:07.008Z,21.33
2023-04-24T08:37:36.713Z,21.11
2023-04-24T08:40:08.768Z,21.32
2023-04-24T08:42:39.118Z,21.30
2023-04-24T08:45:08.216Z,20.96
2023-04-24T08:47:37.941Z,20.74
2023-04-24T08:50:08.186Z,21.34
2023-04-24T08:52:37.918Z,21.28
2023-04-24T08:55:07.593Z,21.44
2023-04-24T08:57:36.930Z,21.42
2023-04-24T09:00:05.715Z,21.57
2023-04-24T09:02:36.098Z,21.22
2023-04-24T09:05:04.847Z,21.11
2023-04-24T09:07:37.679Z,20.53
2023-04-24T09:10:09.558Z,20.23
2023-04-24T09:12:37.873Z,20.27
2023-04-24T09:15:06.765Z,20.24
2023-04-24T09:17:36.539Z,20.27
2023-04-24T09:20:05.240Z,20.39
2023-04-24T09:22:33.298Z,20.52
2023-04-24T09:25:06.739Z,20.55
2023-04-24T09:27:36.341Z,20.49
2023-04-24T09:30:05.518Z,20.10
2023-04-24T09:32:33.812Z,20.79
2023-04-24T09:35:10.160Z,20.43
2023-04-24T09:37:39.636Z,20.51
2023-04-24T09:40:13.304Z,20.81
2023-04-24T09:42:46.126Z,20.98
2023-04-24T09:45:15.452Z,20.84
2023-04-24T09:47:44.861Z,20.21
2023-04-24T09:50:17.682Z,20.81
2023-04-24T09:52:58.951Z,20.93
2023-04-24T09:55:27.768Z,20.96
2023-04-24T09:57:59.426Z,21.46
2023-04-24T10:00:29.138Z,21.02
2023-04-24T10:02:58.519Z,22.19
2023-04-24T10:05:28.970Z,22.19
2023-04-24T10:08:03.818Z,22.38
2023-04-24T10:10:32.837Z,22.47
2023-04-24T10:13:03.627Z,22.37
2023-04-24T10:15:32.092Z,22.93
2023-04-24T10:18:01.196Z,23.92
2023-04-24T10:20:31.621Z,22.90
2023-04-24T10:23:00.534Z,22.70
2023-04-24T10:25:30.773Z,22.29
2023-04-24T10:28:00.693Z,22.05
2023-04-24T10:30:33.512Z,21.83
2023-04-24T10:33:01.856Z,22.01
2023-04-24T10:35:33.353Z,21.30
2023-04-24T10:38:05.946Z,21.48
2023-04-24T10:40:35.659Z,21.35
2023-04-24T10:43:07.330Z,20.57
2023-04-24T10:45:36.916Z,20.78
2023-04-24T10:48:11.611Z,20.56
2023-04-24T10:50:47.467Z,20.34
2023-04-24T10:53:18.467Z,20.45
2023-04-24T10:55:48.896Z,20.77
2023-04-24T10:58:17.817Z,20.22
2023-04-24T11:00:58.549Z,20.85
2023-04-24T11:03:28.888Z,22.41
2023-04-24T11:06:04.563Z,22.68
2023-04-24T11:08:34.985Z,22.29
2023-04-24T11:11:06.412Z,21.56
2023-04-24T11:14:09.479Z,22.40
2023-04-24T11:16:54.284Z,22.33
2023-04-24T11:19:26.716Z,22.31
2023-04-24T11:22:00.667Z,22.58
2023-04-24T11:24:31.748Z,22.50
2023-04-24T11:27:02.650Z,21.75
2023-04-24T11:29:41.254Z,21.14
2023-04-24T11:32:25.533Z,21.18
2023-04-24T11:34:54.754Z,20.95
2023-04-24T11:37:23.566Z,21.15
2023-04-24T11:39:54.101Z,20.30
2023-04-24T11:42:23.851Z,20.58
2023-04-24T11:44:52.283Z,20.83
2023-04-24T11:47:21.926Z,21.52
2023-04-24T11:49:52.705Z,21.06
2023-04-24T11:52:21.638Z,21.23
2023-04-24T11:54:51.582Z,21.06
2023-04-24T11:57:22.902Z,21.23
2023-04-24T11:59:51.423Z,21.46
2023-04-24T12:02:24.824Z,22.15
2023-04-24T12:04:55.013Z,23.15
2023-04-24T12:07:25.848Z,23.13
2023-04-24T12:09:59.075Z,23.18
2023-04-24T12:12:29.178Z,21.72
2023-04-24T12:14:58.973Z,21.03
2023-04-24T12:17:31.282Z,20.90
2023-04-24T12:20:01.623Z,21.32
2023-04-24T12:22:29.573Z,21.54
2023-04-24T12:25:02.663Z,21.24
2023-04-24T12:27:34.513Z,21.29
2023-04-24T12:30:05.482Z,21.35
2023-04-24T12:32:34.747Z,21.98
2023-04-24T12:35:07.110Z,21.68
2023-04-24T12:37:37.415Z,21.28
2023-04-24T12:40:08.802Z,21.45
2023-04-24T12:42:37.789Z,21.88
2023-04-24T12:45:07.752Z,22.18
2023-04-24T12:47:37.890Z,23.07
2023-04-24T12:50:07.079Z,22.92
2023-04-24T12:52:35.258Z,23.42
2023-04-24T12:55:03.838Z,22.90
2023-04-24T12:57:32.832Z,22.48
2023-04-24T13:00:01.090Z,22.29
2023-04-24T13:02:31.453Z,22.29
2023-04-24T13:05:01.373Z,22.22
2023-04-24T13:07:29.994Z,22.50
2023-04-24T13:09:58.828Z,22.31
2023-04-24T13:12:27.476Z,22.30
2023-04-24T13:14:56.759Z,23.18
2023-04-24T13:17:24.731Z,22.85
2023-04-24T13:19:54.274Z,23.14
2023-04-24T13:22:23.629Z,22.28
2023-04-24T13:24:51.700Z,22.08
2023-04-24T13:27:20.408Z,21.57
2023-04-24T13:29:48.389Z,22.03
2023-04-24T13:32:16.496Z,22.06
2023-04-24T13:34:44.851Z,22.15
2023-04-24T13:37:12.801Z,22.06
2023-04-24T13:39:42.894Z,21.73
2023-04-24T13:42:11.109Z,21.83
2023-04-24T13:44:39.316Z,21.95
2023-04-24T13:47:07.313Z,22.89
2023-04-24T13:49:35.240Z,22.87
2023-04-24T13:52:04.196Z,22.89
2023-04-24T13:54:32.045Z,22.48
2023-04-24T13:57:02.093Z,21.69
2023-04-24T13:59:30.073Z,21.47
2023-04-24T14:01:58.123Z,21.13
2023-04-24T14:04:26.723Z,21.24
2023-04-24T14:06:55.206Z,21.29
2023-04-24T14:09:23.125Z,21.38
2023-04-24T14:11:51.134Z,21.65
2023-04-24T14:14:20.598Z,21.14
2023-04-24T14:16:48.605Z,21.06
2023-04-24T14:19:16.609Z,20.68
2023-04-24T14:21:44.630Z,20.98
2023-04-24T14:24:12.597Z,20.77
2023-04-24T14:26:40.444Z,21.27
2023-04-24T14:29:14.915Z,21.39
2023-04-24T14:31:44.953Z,21.51
2023-04-24T14:34:13.448Z,21.73
2023-04-24T14:36:41.585Z,21.55
2023-04-24T14:39:09.546Z,21.43
2023-04-24T14:41:38.285Z,20.96
2023-04-24T14:44:06.712Z,20.92
2023-04-24T14:46:34.808Z,20.89
2023-04-24T14:49:04.197Z,20.85
2023-04-24T14:51:32.663Z,20.84
2023-04-24T14:54:00.782Z,20.90
2023-04-24T14:56:29.260Z,20.71
2023-04-24T14:58:57.625Z,20.84
2023-04-24T15:01:26.261Z,21.10
2023-04-24T15:03:54.790Z,21.50
2023-04-24T15:06:24.563Z,20.79
2023-04-24T15:08:52.416Z,21.07
2023-04-24T15:11:20.913Z,21.23
2023-04-24T15:13:49.087Z,20.73
2023-04-24T15:16:17.276Z,20.67
2023-04-24T15:18:45.583Z,20.87
2023-04-24T15:21:14.180Z,20.76
2023-04-24T15:23:43.643Z,20.82
2023-04-24T15:26:11.862Z,20.45
2023-04-24T15:28:39.759Z,20.40
2023-04-24T15:31:07.673Z,19.94
2023-04-24T15:33:35.542Z,19.80
2023-04-24T15:36:03.535Z,19.75
2023-04-24T15:38:31.465Z,19.61
2023-04-24T15:41:00.743Z,19.76
2023-04-24T15:43:30.824Z,19.67
2023-04-24T15:45:59.074Z,19.97
2023-04-24T15:48:27.263Z,19.77
2023-04-24T15:50:55.482Z,19.76
2023-04-24T15:53:23.847Z,19.42
2023-04-24T15:55:52.790Z,19.84
2023-04-24T15:58:22.522Z,19.63
2023-04-24T16:00:51.018Z,19.66
2023-04-24T16:03:19.200Z,19.48
2023-04-24T16:05:47.304Z,19.35
2023-04-24T16:08:15.508Z,19.47
2023-04-24T16:10:44.244Z,19.46
2023-04-24T16:13:12.266Z,19.36
2023-04-24T16:15:42.149Z,19.50
2023-04-24T16:18:10.237Z,19.50
2023-04-24T16:20:38.351Z,19.20
2023-04-24T16:23:06.286Z,19.40
2023-04-24T16:25:34.273Z,18.94
2023-04-24T16:28:02.325Z,19.34
2023-04-24T16:30:30.505Z,19.06
2023-04-24T16:32:59.899Z,19.08
2023-04-24T16:35:27.890Z,19.00
2023-04-24T16:37:55.817Z,18.82
2023-04-24T16:40:23.762Z,18.82
2023-04-24T16:42:52.794Z,18.75
2023-04-24T16:45:20.794Z,18.47
2023-04-24T16:47:48.870Z,18.55
2023-04-24T16:50:18.271Z,18.07
2023-04-24T16:52:46.227Z,18.24
2023-04-24T16:55:14.204Z,18.23
2023-04-24T16:57:42.112Z,17.54
2023-04-24T17:00:11.172Z,17.38
2023-04-24T17:02:39.191Z,17.80
2023-04-24T17:05:08.023Z,17.89
2023-04-24T17:07:37.350Z,17.57
2023-04-24T17:10:06.096Z,17.62
2023-04-24T17:12:34.079Z,17.51
2023-04-24T17:15:01.953Z,17.85
2023-04-24T17:17:29.941Z,17.26
2023-04-24T17:19:59.813Z,17.35
2023-04-24T17:22:29.315Z,17.42
2023-04-24T17:24:58.697Z,17.30
2023-04-24T17:27:26.581Z,17.04
2023-04-24T17:29:54.495Z,16.97
2023-04-24T17:32:22.590Z,17.08
2023-04-24T17:34:50.581Z,17.30
2023-04-24T17:37:20.239Z,16.85
2023-04-24T17:39:48.092Z,16.75
2023-04-24T17:42:17.534Z,16.83
2023-04-24T17:44:45.557Z,16.70
2023-04-24T17:47:13.614Z,16.60
2023-04-24T17:49:41.474Z,16.58
2023-04-24T17:52:09.468Z,16.45
2023-04-24T17:54:37.461Z,16.39
2023-04-24T17:57:05.411Z,16.23
2023-04-24T17:59:34.706Z,15.98
2023-04-24T18:02:02.695Z,16.35
2023-04-24T18:04:30.883Z,16.22
2023-04-24T18:06:58.828Z,16.42
2023-04-24T18:09:26.816Z,16.44
2023-04-24T18:11:54.733Z,16.52
2023-04-24T18:14:23.254Z,16.38
2023-04-24T18:16:52.466Z,16.26
2023-04-24T18:19:20.396Z,16.09
2023-04-24T18:21:48.285Z,15.61
2023-04-24T18:24:16.205Z,15.67
2023-04-24T18:26:44.108Z,15.95
2023-04-24T18:29:11.962Z,15.71
2023-04-24T18:31:39.973Z,15.67
2023-04-24T18:34:09.388Z,15.24
2023-04-24T18:36:37.233Z,15.50
2023-04-24T18:39:05.242Z,15.73
2023-04-24T18:41:34.911Z,15.63
2023-04-24T18:44:02.777Z,15.46
2023-04-24T18:46:31.366Z,15.27
2023-04-24T18:48:59.233Z,15.21
2023-04-24T18:51:28.659Z,15.38
2023-04-24T18:53:56.481Z,15.00
2023-04-24T18:56:24.497Z,14.45
2023-04-24T18:58:54.652Z,15.02
2023-04-24T19:01:23.305Z,14.92
2023-04-24T19:03:51.560Z,14.92
2023-04-24T19:06:19.687Z,14.96
2023-04-24T19:08:49.141Z,14.80
2023-04-24T19:11:17.473Z,14.64
2023-04-24T19:13:45.461Z,14.92
2023-04-24T19:16:13.455Z,14.73
2023-04-24T19:18:41.357Z,14.53
2023-04-24T19:21:09.296Z,14.11
2023-04-24T19:23:39.700Z,14.41
2023-04-24T19:26:09.109Z,14.32
2023-04-24T19:28:39.006Z,14.50
2023-04-24T19:31:07.200Z,14.51
2023-04-24T19:33:35.065Z,14.74
2023-04-24T19:36:06.105Z,14.52
2023-04-24T19:38:34.157Z,14.44
2023-04-24T19:41:02.062Z,14.33
2023-04-24T19:43:31.334Z,14.67
2023-04-24T19:45:59.313Z,14.55
2023-04-24T19:48:30.945Z,14.44
2023-04-24T19:50:58.914Z,14.57
2023-04-24T19:53:26.761Z,14.45
2023-04-24T19:55:55.541Z,14.05
2023-04-24T19:58:23.633Z,14.27
2023-04-24T20:00:52.848Z,13.91
2023-04-24T20:03:32.241Z,13.68
2023-04-24T20:06:01.149Z,13.41
2023-04-24T20:08:29.081Z,13.78
2023-04-24T20:10:58.107Z,13.86
2023-04-24T20:13:27.580Z,13.74
2023-04-24T20:15:56.883Z,13.69
2023-04-24T20:18:24.804Z,13.76
2023-04-24T20:20:56.874Z,13.39
2023-04-24T20:23:24.827Z,13.62
2023-04-24T20:25:57.820Z,13.34
2023-04-24T20:28:26.657Z,13.53
2023-04-24T20:30:56.072Z,13.30
2023-04-24T20:33:25.788Z,13.45
2023-04-24T20:35:53.663Z,13.69
2023-04-24T20:38:22.530Z,13.57
2023-04-24T20:40:57.619Z,13.68
2023-04-24T20:43:28.677Z,13.48
2023-04-24T20:45:58.758Z,13.44
2023-04-24T20:48:26.871Z,13.35
2023-04-24T20:50:54.889Z,13.41
2023-04-24T20:53:22.767Z,13.27
2023-04-24T20:55:50.629Z,13.31
2023-04-24T20:58:20.768Z,13.32
2023-04-24T21:00:48.825Z,13.38
2023-04-24T21:03:18.224Z,13.16
2023-04-24T21:05:46.208Z,13.28
2023-04-24T21:08:14.418Z,13.49
2023-04-24T21:10:42.403Z,13.41
2023-04-24T21:13:10.304Z,13.07
2023-04-24T21:15:38.243Z,13.26
2023-04-24T21:18:06.381Z,13.11
2023-04-24T21:20:35.612Z,13.21
2023-04-24T21:23:03.493Z,13.18
2023-04-24T21:25:31.644Z,13.29
2023-04-24T21:28:00.338Z,12.96
2023-04-24T21:30:28.346Z,13.19
2023-04-24T21:32:56.906Z,13.15
2023-04-24T21:35:24.845Z,13.03
2023-04-24T21:37:54.072Z,13.10
2023-04-24T21:40:21.885Z,13.11
2023-04-24T21:42:51.791Z,13.10
2023-04-24T21:45:19.865Z,13.10
2023-04-24T21:47:47.799Z,13.03
2023-04-24T21:50:15.647Z,12.93
2023-04-24T21:52:43.529Z,13.22
2023-04-24T21:55:12.721Z,13.10
2023-04-24T21:57:40.802Z,13.23
2023-04-24T22:00:11.334Z,13.14
2023-04-24T22:02:40.062Z,13.16
2023-04-24T22:05:09.781Z,13.21
2023-04-24T22:07:37.641Z,13.15
2023-04-24T22:10:06.493Z,13.17
2023-04-24T22:12:35.903Z,12.93
2023-04-24T22:15:04.269Z,12.89
2023-04-24T22:17:33.548Z,12.88
2023-04-24T22:20:01.512Z,12.92
2023-04-24T22:22:29.667Z,12.80
2023-04-24T22:24:57.530Z,12.75
2023-04-24T22:27:25.465Z,12.88
2023-04-24T22:29:54.651Z,12.98
2023-04-24T22:32:22.712Z,12.85
2023-04-24T22:34:50.601Z,12.65
2023-04-24T22:37:18.415Z,12.81
2023-04-24T22:39:46.243Z,12.92
2023-04-24T22:42:14.158Z,12.83
2023-04-24T22:44:42.035Z,12.51
2023-04-24T22:47:11.263Z,12.56
2023-04-24T22:49:39.823Z,12.69
2023-04-24T22:52:08.184Z,12.44
2023-04-24T22:54:36.127Z,12.44
2023-04-24T22:57:04.516Z,12.89
2023-04-24T22:59:32.424Z,12.49
2023-04-24T23:02:00.923Z,12.75
2023-04-24T23:04:30.247Z,12.94
2023-04-24T23:06:58.113Z,12.92
2023-04-24T23:09:26.061Z,12.90
2023-04-24T23:11:53.929Z,12.75
2023-04-24T23:14:21.856Z,12.91
2023-04-24T23:16:49.764Z,13.08
2023-04-24T23:19:17.742Z,12.96
2023-04-24T23:21:47.023Z,13.03
2023-04-24T23:24:15.157Z,12.98
2023-04-24T23:26:42.977Z,13.04
2023-04-24T23:29:10.837Z,12.91
2023-04-24T23:31:38.721Z,12.70
2023-04-24T23:34:06.589Z,12.76
2023-04-24T23:36:34.509Z,12.64
2023-04-24T23:39:05.266Z,12.33
2023-04-24T23:41:33.158Z,12.63
2023-04-24T23:44:00.983Z,12.34
2023-04-24T23:46:28.875Z,12.40
2023-04-24T23:48:56.759Z,12.66
2023-04-24T23:51:24.812Z,12.51
2023-04-24T23:53:53.354Z,12.44
2023-04-24T23:56:24.337Z,12.32
2023-04-24T23:58:52.330Z,12.45
